createdAt,value
2022-07-25T00:01:44.204Z,18.61
2022-07-25T00:04:12.756Z,18.57
2022-07-25T00:06:41.794Z,18.52
2022-07-25T00:09:09.237Z,18.48
2022-07-25T00:11:35.947Z,18.44
2022-07-25T00:14:02.895Z,18.39
2022-07-25T00:16:29.741Z,18.37
2022-07-25T00:18:56.447Z,18.33
2022-07-25T00:21:23.154Z,18.29
2022-07-25T00:23:50.715Z,18.23
2022-07-25T00:26:17.441Z,18.19
2022-07-25T00:28:44.413Z,18.16
2022-07-25T00:31:11.167Z,18.10
2022-07-25T00:33:40.204Z,18.07
2022-07-25T00:36:08.493Z,18.03
2022-07-25T00:38:35.540Z,17.99
2022-07-25T00:41:03.942Z,17.94
2022-07-25T00:43:30.809Z,17.91
2022-07-25T00:45:58.781Z,17.86
2022-07-25T00:48:27.443Z,17.83
2022-07-25T00:50:54.929Z,17.79
2022-07-25T00:53:22.419Z,17.76
2022-07-25T00:55:49.147Z,17.73
2022-07-25T00:58:16.118Z,17.72
2022-07-25T01:00:42.845Z,17.69
2022-07-25T01:03:09.552Z,17.66
2022-07-25T01:05:36.295Z,17.64
2022-07-25T01:08:03.762Z,17.60
2022-07-25T01:10:32.967Z,17.56
2022-07-25T01:12:59.705Z,17.52
2022-07-25T01:15:26.453Z,17.49
2022-07-25T01:17:53.718Z,17.46
2022-07-25T01:20:21.975Z,17.41
2022-07-25T01:22:48.864Z,17.39
2022-07-25T01:25:16.193Z,17.35
2022-07-25T01:27:43.474Z,17.31
2022-07-25T01:30:13.244Z,17.27
2022-07-25T01:32:40.693Z,17.23
2022-07-25T01:35:08.183Z,17.21
2022-07-25T01:37:35.383Z,17.13
2022-07-25T01:40:03.434Z,17.12
2022-07-25T01:42:30.331Z,17.08
2022-07-25T01:44:58.034Z,17.04
2022-07-25T01:47:25.149Z,17.01
2022-07-25T01:49:52.271Z,17.00
2022-07-25T01:52:19.002Z,16.94
2022-07-25T01:54:45.609Z,16.88
2022-07-25T01:57:13.537Z,16.87
2022-07-25T01:59:40.924Z,16.84
2022-07-25T02:02:08.902Z,16.79
2022-07-25T02:04:36.732Z,16.76
2022-07-25T02:07:04.363Z,16.76
2022-07-25T02:09:32.938Z,16.64
2022-07-25T02:11:59.539Z,16.61
2022-07-25T02:14:26.207Z,16.59
2022-07-25T02:16:52.928Z,16.57
2022-07-25T02:19:19.648Z,16.55
2022-07-25T02:21:46.244Z,16.53
2022-07-25T02:24:12.890Z,16.50
2022-07-25T02:26:39.473Z,16.47
2022-07-25T02:29:06.147Z,16.44
2022-07-25T02:31:32.769Z,16.41
2022-07-25T02:33:59.472Z,16.35
2022-07-25T02:36:26.178Z,16.34
2022-07-25T02:38:52.789Z,16.30
2022-07-25T02:41:19.360Z,16.24
2022-07-25T02:43:45.986Z,16.24
2022-07-25T02:46:12.720Z,16.23
2022-07-25T02:48:39.505Z,16.20
2022-07-25T02:51:06.302Z,16.17
2022-07-25T02:53:56.228Z,16.13
2022-07-25T02:56:21.186Z,16.12
2022-07-25T02:58:48.258Z,16.09
2022-07-25T03:01:15.263Z,16.07
2022-07-25T03:03:42.197Z,16.06
2022-07-25T03:06:09.045Z,16.02
2022-07-25T03:08:35.713Z,15.99
2022-07-25T03:11:03.586Z,15.96
2022-07-25T03:13:30.266Z,15.95
2022-07-25T03:15:56.871Z,15.93
2022-07-25T03:18:23.483Z,15.93
2022-07-25T03:20:50.137Z,15.89
2022-07-25T03:23:16.704Z,15.86
2022-07-25T03:25:43.357Z,15.85
2022-07-25T03:28:09.953Z,15.84
2022-07-25T03:30:36.609Z,15.83
2022-07-25T03:33:03.311Z,15.81
2022-07-25T03:35:29.933Z,15.79
2022-07-25T03:37:56.474Z,15.76
2022-07-25T03:40:23.398Z,15.73
2022-07-25T03:42:50.028Z,15.72
2022-07-25T03:45:17.969Z,15.68
2022-07-25T03:47:44.897Z,15.67
2022-07-25T03:50:11.683Z,15.65
2022-07-25T03:52:38.505Z,15.64
2022-07-25T03:55:10.090Z,15.63
2022-07-25T03:57:37.055Z,15.64
2022-07-25T04:00:06.198Z,15.63
2022-07-25T04:02:33.455Z,15.60
2022-07-25T04:05:00.215Z,15.60
2022-07-25T04:07:26.988Z,15.61
2022-07-25T04:09:53.734Z,15.61
2022-07-25T04:12:20.414Z,15.61
2022-07-25T04:14:47.092Z,15.60
2022-07-25T04:17:13.826Z,15.62
2022-07-25T04:19:41.047Z,15.63
2022-07-25T04:22:07.729Z,15.61
2022-07-25T04:24:34.550Z,15.65
2022-07-25T04:27:01.284Z,15.68
2022-07-25T04:29:27.923Z,15.70
2022-07-25T04:31:54.577Z,15.72
2022-07-25T04:34:21.231Z,15.75
2022-07-25T04:36:47.867Z,15.78
2022-07-25T04:39:14.444Z,15.79
2022-07-25T04:41:41.321Z,15.86
2022-07-25T04:44:09.101Z,15.89
2022-07-25T04:46:36.121Z,15.99
2022-07-25T04:49:02.995Z,16.15
2022-07-25T04:51:29.794Z,16.29
2022-07-25T04:53:56.534Z,16.44
2022-07-25T04:56:23.197Z,16.57
2022-07-25T04:58:49.974Z,16.71
2022-07-25T05:01:16.868Z,16.89
2022-07-25T05:03:50.175Z,16.97
2022-07-25T05:06:18.334Z,17.06
2022-07-25T05:08:45.084Z,17.13
2022-07-25T05:11:11.725Z,17.19
2022-07-25T05:13:38.336Z,17.29
2022-07-25T05:16:05.504Z,17.35
2022-07-25T05:18:34.419Z,17.49
2022-07-25T05:21:01.308Z,17.59
2022-07-25T05:23:27.985Z,17.64
2022-07-25T05:25:55.295Z,17.79
2022-07-25T05:28:21.975Z,17.90
2022-07-25T05:30:48.602Z,17.99
2022-07-25T05:33:15.234Z,18.14
2022-07-25T05:35:42.008Z,18.24
2022-07-25T05:38:08.610Z,18.31
2022-07-25T05:40:35.247Z,18.42
2022-07-25T05:43:03.474Z,18.53
2022-07-25T05:45:30.844Z,18.58
2022-07-25T05:47:57.528Z,18.66
2022-07-25T05:50:24.341Z,18.72
2022-07-25T05:52:50.991Z,18.83
2022-07-25T05:55:17.844Z,18.88
2022-07-25T05:57:44.524Z,18.98
2022-07-25T06:00:11.947Z,19.05
2022-07-25T06:02:38.820Z,19.18
2022-07-25T06:05:05.736Z,19.32
2022-07-25T06:07:32.365Z,19.48
2022-07-25T06:09:58.914Z,19.62
2022-07-25T06:12:25.560Z,19.77
2022-07-25T06:14:52.452Z,19.98
2022-07-25T06:17:19.062Z,20.20
2022-07-25T06:19:45.668Z,20.49
2022-07-25T06:22:12.669Z,20.90
2022-07-25T06:24:41.814Z,21.25
2022-07-25T06:27:09.060Z,21.67
2022-07-25T06:29:35.750Z,22.12
2022-07-25T06:32:02.901Z,22.52
2022-07-25T06:34:29.913Z,23.02
2022-07-25T06:36:57.707Z,23.50
2022-07-25T06:39:26.244Z,23.91
2022-07-25T06:41:52.890Z,24.40
2022-07-25T06:44:19.654Z,24.86
2022-07-25T06:46:46.342Z,25.20
2022-07-25T06:49:13.107Z,25.68
2022-07-25T06:51:39.727Z,26.08
2022-07-25T06:54:07.204Z,26.43
2022-07-25T06:56:34.188Z,26.84
2022-07-25T06:59:01.036Z,27.17
2022-07-25T07:01:27.975Z,27.46
2022-07-25T07:03:54.871Z,27.77
2022-07-25T07:06:21.721Z,28.03
2022-07-25T07:08:48.418Z,28.36
2022-07-25T07:11:16.762Z,28.35
2022-07-25T07:13:43.480Z,28.69
2022-07-25T07:16:10.322Z,28.80
2022-07-25T07:18:37.702Z,29.15
2022-07-25T07:21:05.711Z,29.04
2022-07-25T07:23:32.855Z,29.03
2022-07-25T07:26:00.555Z,29.16
2022-07-25T07:28:27.320Z,29.35
2022-07-25T07:33:40.753Z,28.77
2022-07-25T07:36:07.725Z,29.06
2022-07-25T07:38:34.658Z,29.22
2022-07-25T07:41:01.319Z,29.33
2022-07-25T07:43:30.510Z,29.19
2022-07-25T07:46:01.393Z,29.19
2022-07-25T07:48:31.850Z,29.66
2022-07-25T07:51:00.152Z,29.84
2022-07-25T07:53:46.987Z,29.39
2022-07-25T07:56:17.469Z,29.47
2022-07-25T07:58:44.074Z,29.62
2022-07-25T08:01:11.289Z,29.79
2022-07-25T08:03:37.959Z,30.02
2022-07-25T08:06:05.177Z,30.25
2022-07-25T08:08:31.926Z,30.11
2022-07-25T08:10:59.425Z,30.32
2022-07-25T08:13:30.469Z,30.56
2022-07-25T08:15:59.847Z,30.43
2022-07-25T08:18:30.141Z,30.65
2022-07-25T08:20:57.275Z,30.45
2022-07-25T08:23:25.415Z,30.17
2022-07-25T08:25:52.449Z,30.29
2022-07-25T08:28:22.375Z,30.46
2022-07-25T08:30:49.118Z,30.55
2022-07-25T08:33:18.420Z,30.40
2022-07-25T08:35:52.182Z,30.64
2022-07-25T08:38:19.965Z,30.46
2022-07-25T08:40:46.989Z,30.73
2022-07-25T08:43:15.694Z,30.89
2022-07-25T08:45:47.554Z,31.12
2022-07-25T08:48:17.172Z,31.23
2022-07-25T08:50:44.423Z,31.45
2022-07-25T08:53:32.221Z,31.55
2022-07-25T08:55:57.852Z,31.54
2022-07-25T08:58:24.505Z,31.58
2022-07-25T09:00:51.188Z,31.15
2022-07-25T09:03:17.927Z,31.18
2022-07-25T09:05:44.959Z,31.27
2022-07-25T09:08:14.822Z,31.20
2022-07-25T09:10:47.877Z,31.10
2022-07-25T09:13:15.298Z,30.96
2022-07-25T09:15:53.794Z,31.03
2022-07-25T09:18:25.449Z,30.61
2022-07-25T09:20:54.761Z,30.81
2022-07-25T09:23:39.587Z,30.86
2022-07-25T09:26:09.095Z,30.73
2022-07-25T09:28:47.206Z,30.67
2022-07-25T09:31:15.312Z,30.56
2022-07-25T09:33:46.312Z,30.74
2022-07-25T09:36:13.538Z,30.70
2022-07-25T09:38:40.419Z,30.76
2022-07-25T09:41:07.794Z,30.65
2022-07-25T09:43:38.487Z,30.80
2022-07-25T09:46:05.875Z,30.92
2022-07-25T09:48:33.410Z,30.96
2022-07-25T09:51:00.515Z,31.02
2022-07-25T09:53:27.452Z,31.14
2022-07-25T09:55:55.228Z,31.07
2022-07-25T09:58:21.944Z,31.17
2022-07-25T10:00:49.381Z,31.31
2022-07-25T10:03:22.845Z,31.35
2022-07-25T10:06:08.497Z,31.51
2022-07-25T10:08:39.130Z,31.61
2022-07-25T10:11:06.913Z,31.56
2022-07-25T10:13:35.203Z,31.65
2022-07-25T10:16:02.693Z,31.60
2022-07-25T10:18:30.828Z,31.99
2022-07-25T10:21:27.661Z,31.96
2022-07-25T10:24:09.952Z,32.16
2022-07-25T10:26:51.270Z,32.31
2022-07-25T10:29:17.926Z,32.44
2022-07-25T10:31:50.288Z,32.44
2022-07-25T10:34:30.249Z,32.44
2022-07-25T10:36:57.400Z,32.62
2022-07-25T10:39:24.247Z,33.01
2022-07-25T10:41:55.911Z,33.04
2022-07-25T10:44:22.896Z,33.20
2022-07-25T10:46:50.384Z,33.28
2022-07-25T10:49:31.057Z,33.12
2022-07-25T10:52:05.803Z,32.85
2022-07-25T10:54:37.832Z,32.69
2022-07-25T10:57:07.011Z,32.77
2022-07-25T10:59:39.101Z,32.49
2022-07-25T11:02:09.411Z,33.01
2022-07-25T11:04:36.826Z,33.58
2022-07-25T11:07:09.776Z,33.70
2022-07-25T11:09:38.045Z,34.19
2022-07-25T11:12:05.479Z,34.45
2022-07-25T11:14:35.151Z,34.96
2022-07-25T11:17:22.598Z,35.03
2022-07-25T11:20:01.331Z,35.47
2022-07-25T11:22:29.800Z,35.59
2022-07-25T11:24:57.841Z,35.08
2022-07-25T11:27:27.554Z,34.98
2022-07-25T11:30:06.279Z,34.57
2022-07-25T11:32:43.192Z,33.80
2022-07-25T11:35:11.884Z,34.01
2022-07-25T11:37:40.735Z,33.74
2022-07-25T11:40:08.122Z,33.57
2022-07-25T11:42:43.185Z,33.78
2022-07-25T11:45:27.000Z,34.30
2022-07-25T11:48:11.938Z,34.52
2022-07-25T11:50:40.932Z,34.44
2022-07-25T11:53:11.497Z,34.54
2022-07-25T11:55:42.499Z,34.94
2022-07-25T11:58:10.569Z,35.15
2022-07-25T12:00:46.487Z,35.33
2022-07-25T12:03:19.994Z,35.04
2022-07-25T12:05:48.226Z,34.97
2022-07-25T12:08:17.671Z,34.44
2022-07-25T12:10:54.938Z,34.84
2022-07-25T12:13:26.783Z,35.67
2022-07-25T12:15:53.744Z,35.84
2022-07-25T12:18:20.386Z,35.82
2022-07-25T12:20:47.100Z,36.21
2022-07-25T12:23:14.077Z,36.14
2022-07-25T12:25:43.319Z,36.67
2022-07-25T12:28:11.283Z,36.50
2022-07-25T12:30:39.496Z,36.88
2022-07-25T12:33:06.930Z,36.58
2022-07-25T12:35:34.043Z,37.03
2022-07-25T12:38:00.702Z,37.07
2022-07-25T12:40:27.410Z,36.89
2022-07-25T12:42:54.545Z,36.41
2022-07-25T12:45:21.814Z,36.14
2022-07-25T12:47:48.906Z,35.86
2022-07-25T12:50:18.085Z,36.21
2022-07-25T12:52:47.150Z,35.88
2022-07-25T12:55:16.180Z,35.96
2022-07-25T12:57:43.070Z,36.21
2022-07-25T13:00:13.973Z,36.11
2022-07-25T13:02:41.080Z,35.64
2022-07-25T13:05:08.046Z,35.78
2022-07-25T13:07:35.175Z,34.84
2022-07-25T13:10:03.745Z,34.74
2022-07-25T13:12:30.316Z,34.50
2022-07-25T13:14:57.346Z,34.66
2022-07-25T13:17:27.538Z,34.58
2022-07-25T13:19:55.903Z,35.16
2022-07-25T13:22:22.791Z,36.11
2022-07-25T13:24:49.526Z,36.64
2022-07-25T13:27:18.941Z,37.32
2022-07-25T13:29:46.185Z,37.45
2022-07-25T13:32:13.640Z,37.29
2022-07-25T13:34:40.396Z,37.54
2022-07-25T13:37:07.103Z,37.78
2022-07-25T13:39:35.805Z,37.32
2022-07-25T13:42:03.167Z,35.98
2022-07-25T13:44:29.805Z,35.91
2022-07-25T13:46:57.484Z,36.17
2022-07-25T13:49:24.659Z,36.21
2022-07-25T13:51:51.302Z,36.06
2022-07-25T13:54:17.964Z,35.76
2022-07-25T13:56:44.625Z,35.37
2022-07-25T13:59:15.988Z,35.35
2022-07-25T14:01:47.605Z,35.14
2022-07-25T14:04:14.295Z,34.51
2022-07-25T14:06:40.941Z,34.60
2022-07-25T14:09:08.259Z,34.49
2022-07-25T14:11:35.250Z,34.53
2022-07-25T14:14:02.106Z,34.19
2022-07-25T14:16:29.182Z,34.45
2022-07-25T14:18:55.908Z,34.17
2022-07-25T14:21:22.682Z,33.99
2022-07-25T14:23:49.353Z,33.40
2022-07-25T14:26:15.959Z,33.23
2022-07-25T14:28:42.698Z,32.77
2022-07-25T14:31:09.436Z,31.72
2022-07-25T14:33:39.900Z,31.20
2022-07-25T14:36:08.212Z,31.18
2022-07-25T14:38:34.889Z,30.64
2022-07-25T14:41:01.778Z,30.36
2022-07-25T14:43:28.485Z,30.28
2022-07-25T14:45:55.150Z,30.07
2022-07-25T14:48:21.775Z,29.93
2022-07-25T14:50:48.466Z,29.39
2022-07-25T14:53:15.307Z,28.96
2022-07-25T14:55:42.038Z,27.98
2022-07-25T14:58:08.760Z,27.80
2022-07-25T15:00:35.577Z,27.83
2022-07-25T15:03:02.183Z,27.99
2022-07-25T15:05:28.846Z,28.15
2022-07-25T15:07:55.523Z,28.25
2022-07-25T15:10:22.404Z,28.27
2022-07-25T15:12:54.272Z,28.33
2022-07-25T15:15:28.943Z,28.23
2022-07-25T15:17:56.283Z,28.27
2022-07-25T15:20:22.989Z,28.28
2022-07-25T15:22:49.715Z,28.30
2022-07-25T15:25:51.050Z,28.32
2022-07-25T15:28:03.160Z,28.50
2022-07-25T15:30:30.194Z,28.52
2022-07-25T15:32:56.847Z,28.66
2022-07-25T15:35:23.506Z,28.77
2022-07-25T15:37:50.216Z,28.73
2022-07-25T15:40:16.939Z,28.88
2022-07-25T15:42:44.239Z,28.98
2022-07-25T15:47:59.796Z,29.10
2022-07-25T15:50:26.421Z,29.16
2022-07-25T15:52:53.112Z,28.94
2022-07-25T15:55:19.757Z,29.00
2022-07-25T15:57:46.608Z,29.21
2022-07-25T16:00:13.647Z,29.33
2022-07-25T16:02:40.398Z,29.33
2022-07-25T16:05:07.241Z,29.32
2022-07-25T16:07:33.934Z,29.38
2022-07-25T16:10:00.534Z,29.46
2022-07-25T16:12:28.807Z,29.53
2022-07-25T16:14:55.761Z,29.72
2022-07-25T16:17:22.682Z,29.78
2022-07-25T16:19:49.440Z,29.81
2022-07-25T16:22:16.101Z,29.87
2022-07-25T16:24:42.889Z,30.02
2022-07-25T16:27:10.083Z,30.09
2022-07-25T16:29:37.304Z,30.03
2022-07-25T16:32:04.500Z,30.14
2022-07-25T16:34:31.525Z,30.25
2022-07-25T16:36:58.158Z,30.34
2022-07-25T16:39:25.029Z,30.36
2022-07-25T16:41:51.833Z,30.30
2022-07-25T16:44:18.511Z,30.26
2022-07-25T16:46:45.519Z,30.16
2022-07-25T16:49:15.255Z,30.21
2022-07-25T16:51:43.273Z,30.33
2022-07-25T16:54:10.363Z,30.41
2022-07-25T16:56:37.717Z,30.37
2022-07-25T16:59:05.862Z,30.24
2022-07-25T17:01:34.942Z,30.22
2022-07-25T17:04:01.549Z,29.90
2022-07-25T17:06:28.241Z,29.96
2022-07-25T17:08:55.122Z,30.04
2022-07-25T17:11:22.414Z,30.03
2022-07-25T17:13:49.164Z,29.93
2022-07-25T17:16:15.978Z,29.86
2022-07-25T17:18:42.688Z,29.87
2022-07-25T17:21:10.634Z,29.84
2022-07-25T17:23:37.280Z,29.73
2022-07-25T17:26:07.922Z,29.69
2022-07-25T17:28:35.331Z,29.59
2022-07-25T17:31:01.988Z,29.52
2022-07-25T17:33:28.883Z,29.41
2022-07-25T17:35:55.488Z,29.37
2022-07-25T17:38:26.360Z,29.26
2022-07-25T17:40:54.336Z,29.06
2022-07-25T17:43:21.039Z,29.06
2022-07-25T17:45:47.985Z,29.00
2022-07-25T17:48:15.818Z,28.89
2022-07-25T17:50:42.571Z,28.84
2022-07-25T17:53:09.210Z,28.78
2022-07-25T17:55:38.959Z,28.74
2022-07-25T17:58:06.224Z,28.71
2022-07-25T18:00:32.825Z,28.65
2022-07-25T18:02:59.990Z,28.54
2022-07-25T18:05:26.901Z,28.47
2022-07-25T18:07:54.048Z,28.41
2022-07-25T18:10:23.804Z,28.36
2022-07-25T18:12:50.829Z,28.32
2022-07-25T18:15:17.627Z,28.28
2022-07-25T18:17:45.950Z,28.19
2022-07-25T18:20:14.260Z,27.99
2022-07-25T18:22:41.499Z,27.63
2022-07-25T18:25:13.081Z,27.62
2022-07-25T18:27:44.714Z,27.44
2022-07-25T18:30:11.926Z,27.07
2022-07-25T18:32:38.851Z,26.83
2022-07-25T18:35:07.824Z,26.21
2022-07-25T18:37:34.695Z,25.61
2022-07-25T18:40:01.288Z,25.39
2022-07-25T18:42:30.059Z,25.06
2022-07-25T18:44:57.443Z,25.30
2022-07-25T18:47:26.513Z,25.32
2022-07-25T18:49:58.705Z,24.89
2022-07-25T18:52:25.349Z,24.92
2022-07-25T18:54:51.988Z,24.92
2022-07-25T18:57:18.959Z,24.90
2022-07-25T18:59:45.796Z,24.77
2022-07-25T19:02:13.799Z,24.46
2022-07-25T19:04:40.601Z,24.29
2022-07-25T19:07:08.083Z,24.29
2022-07-25T19:09:34.943Z,24.35
2022-07-25T19:12:01.576Z,24.18
2022-07-25T19:14:30.624Z,24.25
2022-07-25T19:16:57.761Z,23.86
2022-07-25T19:19:25.598Z,23.97
2022-07-25T19:21:52.199Z,23.98
2022-07-25T19:24:19.219Z,23.94
2022-07-25T19:26:47.887Z,23.86
2022-07-25T19:29:16.726Z,23.82
2022-07-25T19:31:44.128Z,23.74
2022-07-25T19:34:11.423Z,23.62
2022-07-25T19:36:38.883Z,23.49
2022-07-25T19:39:06.446Z,23.30
2022-07-25T19:41:33.455Z,23.12
2022-07-25T19:44:00.165Z,23.16
2022-07-25T19:46:31.198Z,23.17
2022-07-25T19:48:58.230Z,23.16
2022-07-25T19:51:25.032Z,23.15
2022-07-25T19:53:51.693Z,23.08
2022-07-25T19:56:18.327Z,23.12
2022-07-25T19:58:45.271Z,23.18
2022-07-25T20:01:13.279Z,23.10
2022-07-25T20:03:40.558Z,22.99
2022-07-25T20:06:08.613Z,23.02
2022-07-25T20:08:37.245Z,23.05
2022-07-25T20:11:04.027Z,23.02
2022-07-25T20:13:30.854Z,22.89
2022-07-25T20:15:58.662Z,22.90
2022-07-25T20:18:25.681Z,22.90
2022-07-25T20:20:52.427Z,22.89
2022-07-25T20:23:19.091Z,22.83
2022-07-25T20:25:45.754Z,22.79
2022-07-25T20:28:12.411Z,22.73
2022-07-25T20:30:39.615Z,22.67
2022-07-25T20:33:09.653Z,22.59
2022-07-25T20:35:37.869Z,22.47
2022-07-25T20:38:09.349Z,22.51
2022-07-25T20:40:37.874Z,22.46
2022-07-25T20:43:08.732Z,22.46
2022-07-25T20:45:35.433Z,22.41
2022-07-25T20:48:02.414Z,22.24
2022-07-25T20:50:29.297Z,22.27
2022-07-25T20:52:56.006Z,22.20
2022-07-25T20:55:22.693Z,22.22
2022-07-25T20:57:50.777Z,22.20
2022-07-25T21:00:18.251Z,22.15
2022-07-25T21:02:45.100Z,22.14
2022-07-25T21:05:11.828Z,22.18
2022-07-25T21:07:38.561Z,22.16
2022-07-25T21:10:05.563Z,22.10
2022-07-25T21:12:32.989Z,22.04
2022-07-25T21:15:01.292Z,22.12
2022-07-25T21:17:28.651Z,22.12
2022-07-25T21:19:55.321Z,22.20
2022-07-25T21:22:22.246Z,22.23
2022-07-25T21:24:49.710Z,22.25
2022-07-25T21:27:17.483Z,22.19
2022-07-25T21:29:44.813Z,22.23
2022-07-25T21:32:14.469Z,22.26
2022-07-25T21:34:41.726Z,22.27
2022-07-25T21:37:08.410Z,22.30
2022-07-25T21:39:35.154Z,22.33
2022-07-25T21:42:02.012Z,22.36
2022-07-25T21:44:28.792Z,22.33
2022-07-25T21:46:55.427Z,22.31
2022-07-25T21:49:42.543Z,22.33
2022-07-25T21:52:13.735Z,22.34
2022-07-25T21:54:41.195Z,22.34
2022-07-25T21:57:13.402Z,22.33
2022-07-25T21:59:44.667Z,22.33
2022-07-25T22:02:11.794Z,22.28
2022-07-25T22:04:38.856Z,22.28
2022-07-25T22:07:06.019Z,22.24
2022-07-25T22:09:32.831Z,22.25
2022-07-25T22:11:59.458Z,22.26
2022-07-25T22:14:26.267Z,22.24
2022-07-25T22:16:53.131Z,22.20
2022-07-25T22:19:22.460Z,22.17
2022-07-25T22:21:49.690Z,22.07
2022-07-25T22:24:16.452Z,21.99
2022-07-25T22:26:43.209Z,21.98
2022-07-25T22:29:10.195Z,21.87
2022-07-25T22:31:38.988Z,21.82
2022-07-25T22:34:06.165Z,21.76
2022-07-25T22:36:32.867Z,21.69
2022-07-25T22:38:59.564Z,21.68
2022-07-25T22:41:26.241Z,21.58
2022-07-25T22:43:57.951Z,21.46
2022-07-25T22:46:28.508Z,21.44
2022-07-25T22:48:55.554Z,21.38
2022-07-25T22:51:23.423Z,21.32
2022-07-25T22:53:50.401Z,21.28
2022-07-25T22:56:17.173Z,21.27
2022-07-25T22:58:44.029Z,21.22
2022-07-25T23:01:13.672Z,21.17
2022-07-25T23:03:40.366Z,21.09
2022-07-25T23:06:07.324Z,21.03
2022-07-25T23:08:33.989Z,20.99
2022-07-25T23:11:00.760Z,20.93
2022-07-25T23:13:27.383Z,20.91
2022-07-25T23:15:54.035Z,20.86
2022-07-25T23:18:21.049Z,20.76
2022-07-25T23:20:47.663Z,20.67
2022-07-25T23:23:14.395Z,20.55
2022-07-25T23:25:41.136Z,20.50
2022-07-25T23:28:08.232Z,20.46
2022-07-25T23:30:39.902Z,20.40
2022-07-25T23:33:07.574Z,20.36
2022-07-25T23:35:34.694Z,20.29
2022-07-25T23:38:01.315Z,20.27
2022-07-25T23:40:27.970Z,20.27
2022-07-25T23:42:54.966Z,20.23
2022-07-25T23:45:26.996Z,20.17
2022-07-25T23:47:55.049Z,20.07
2022-07-25T23:50:22.316Z,20.04
2022-07-25T23:52:48.940Z,20.00
2022-07-25T23:55:15.554Z,20.01
2022-07-25T23:57:42.269Z,19.96
